Mill Valley, CA

3:53 AM PDT on May 22, 2015 (GMT -0700)
North Homestead Valley | | Change Station
CLOSE
Current Station
Personal Weather Station
Location: Mill Valley, CA
Elevation: 174 ft
Nearby Weather Stations

Elev 174 ft 37.90 °N, 122.54 °W | Updated 10 minutes ago

Overcast
Overcast
48.4 °F
Feels Like 48 °F
N
0.0
Wind Variable Wind from WSW

Today
High -- | Low -- °F
--% Chance of Precip.
Yesterday
High -- | Low -- °F
Precip. -- in
5:54 AM 8:19 PM
Waxing Crescent, 20% visible
Pressure 29.99 in
Visibility 10.0 miles
Clouds Few 1100 ft
Scattered Clouds 1600 ft
Overcast 4100 ft
Windchill 48 °F
Dew Point 47 °F
Humidity 94%
Rainfall 0.00 in
Snow Depth Not available.
UV 0 out of 12
Pollen 5.30 out of 12
Air Quality Not available.
Flu Activity Sporadic
SPECI KOAK 221005Z 26009KT 10SM FEW011 SCT016 OVC041 14/11 A2999 RMK AO2 $

More Conditions Fewer Conditions

Pressure 29.99 in
Visibility 10.0 miles
Clouds Few 1100 ft
Scattered Clouds 1600 ft
Overcast 4100 ft
Windchill 48 °F
Dew Point 47 °F
Humidity 94%
Rainfall 0.00 in
Snow Depth Not available.
UV 0 out of 12
Pollen 5.30 out of 12
Air Quality Not available.
Flu Activity Sporadic
SPECI KOAK 221005Z 26009KT 10SM FEW011 SCT016 OVC041 14/11 A2999 RMK AO2 $

More Conditions Fewer Conditions

10-Day Weather Forecast

Almanac

Astronomy

May. 22, 2015 Rise Set
Actual Time
Civil Twilight
Nautical Twilight
Astronomical Twilight
Moon
Length of Visible Light
Length of Day
Tomorrow will be .
, % of the Moon is Illuminated

Today's Extremes

State Highs State Lows

Community

WunderPhotos

Upload Photos

1,823,200 photos uploaded!

WunderBlogs® & News

Nearby

Air Quality

  Air Quality AQ Index Pollutant
Not available.

Snow Depth

Station Depth Elevation

Earthquake Activity

City Distance Mag. Time & Date
Minimum magnitude displayed is 2.5.

Coastal Water Temperatures

Place Temperature

Stations

Nearby Weather Stations

Station Location Temp. Windchill Dew Point Humidity Wind Precip. Elev Updated Type